Time;durP1;ratioP1;P1;durP2;ratioP2;P2;SDS_P1;SDS_P2;PMS_P1;PMS_P2;Temp;Humidity;BMP_temperature;BMP_pressure;BME280_temperature;BME280_humidity;BME280_pressure;Samples;Min_cycle;Max_cycle;Signal;HPM_P1;HPM_P2
2023/06/22 00:01:26;;;;;;;;;3.00;3.00;;;;;24.62;58.03;101245.84;4939800;28;45486;-71
2023/06/22 00:03:51;;;;;;;;;5.00;5.00;;;;;24.60;57.54;101250.59;4940751;28;47217;-71
2023/06/22 00:06:17;;;;;;;;;4.00;4.00;;;;;24.55;58.14;101244.66;4942397;28;45625;-71
2023/06/22 00:08:42;;;;;;;;;4.50;4.50;;;;;24.52;57.67;101242.13;4940968;28;45440;-71
2023/06/22 00:11:07;;;;;;;;;4.50;4.50;;;;;24.53;58.25;101238.44;4941075;28;45313;-71
2023/06/22 00:13:33;;;;;;;;;4.50;4.50;;;;;24.57;57.98;101237.19;4944795;28;45404;-71
2023/06/22 00:15:58;;;;;;;;;5.75;3.50;;;;;24.67;57.64;101246.34;4941981;28;45416;-71
2023/06/22 00:18:27;;;;;;;;;4.00;4.00;;;;;24.53;57.30;101222.06;4941920;28;45392;-71
2023/06/22 00:20:56;;;;;;;;;3.00;3.00;;;;;24.67;57.90;101250.94;4940948;28;45525;-71
2023/06/22 00:23:23;;;;;;;;;4.00;4.00;;;;;24.48;57.34;101211.50;4934488;28;45487;-71
2023/06/22 00:25:49;;;;;;;;;4.00;3.25;;;;;24.57;57.44;101224.44;4941836;28;45503;-71
2023/06/22 00:28:15;;;;;;;;;4.25;3.25;;;;;24.44;58.01;101207.31;4942197;28;45425;-71
2023/06/22 00:30:41;;;;;;;;;3.50;3.50;;;;;24.57;57.62;101231.72;4941217;28;45425;-70
2023/06/22 00:33:07;;;;;;;;;5.25;4.00;;;;;24.49;58.61;101215.09;4941766;28;46303;-71
2023/06/22 00:35:33;;;;;;;;;5.00;5.00;;;;;24.40;57.74;101208.56;4933978;28;45467;-71
2023/06/22 00:38:04;;;;;;;;;4.00;4.00;;;;;24.37;58.27;101201.50;4928460;28;45292;-71
2023/06/22 00:40:31;;;;;;;;;5.50;5.00;;;;;24.38;58.04;101197.78;4926667;28;45457;-71
2023/06/22 00:42:57;;;;;;;;;5.00;4.50;;;;;24.53;57.77;101219.31;4935385;28;45491;-71
2023/06/22 00:45:24;;;;;;;;;4.00;4.00;;;;;24.37;57.76;101189.72;4940690;28;45316;-70
2023/06/22 00:47:53;;;;;;;;;4.00;4.00;;;;;24.40;57.69;101189.47;4940905;28;45522;-71
2023/06/22 00:50:24;;;;;;;;;3.75;3.75;;;;;24.32;57.83;101183.78;4941766;28;45522;-70
2023/06/22 00:52:58;;;;;;;;;3.75;3.75;;;;;24.28;57.77;101171.41;4940195;28;47452;-71
2023/06/22 00:55:25;;;;;;;;;3.25;3.25;;;;;24.39;58.39;101199.53;4941082;28;45354;-71
2023/06/22 00:57:55;;;;;;;;;2.75;2.75;;;;;24.30;58.37;101181.19;4940771;28;45458;-71
2023/06/22 01:00:24;;;;;;;;;3.25;3.25;;;;;24.29;57.85;101190.38;4940073;28;45403;-71
2023/06/22 01:02:51;;;;;;;;;4.00;4.00;;;;;24.32;58.18;101187.38;4941345;28;45742;-71
2023/06/22 01:05:19;;;;;;;;;4.00;4.00;;;;;24.14;58.33;101146.16;4940238;28;45408;-71
2023/06/22 01:08:26;;;;;;;;;5.00;4.00;;;;;24.49;58.34;101206.91;4940524;28;45478;-71
2023/06/22 01:11:13;;;;;;;;;5.00;5.00;;;;;24.47;58.26;101201.59;4943211;28;45502;-71
2023/06/22 01:14:03;;;;;;;;;4.00;4.00;;;;;24.44;58.30;101195.53;4941389;28;46527;-71
2023/06/22 01:16:34;;;;;;;;;4.25;4.25;;;;;24.33;57.66;101180.06;4930866;28;45635;-71
2023/06/22 01:19:20;;;;;;;;;7.00;7.00;;;;;24.22;57.83;101160.00;4935307;28;45441;-71
2023/06/22 01:21:47;;;;;;;;;5.75;4.50;;;;;24.34;58.30;101174.50;4939985;28;45360;-71
2023/06/22 01:24:22;;;;;;;;;7.25;6.00;;;;;24.16;57.82;101159.66;4940011;28;45521;-71
2023/06/22 01:27:09;;;;;;;;;5.00;5.00;;;;;24.27;58.06;101177.84;4939624;28;46189;-71
2023/06/22 01:29:38;;;;;;;;;7.25;6.00;;;;;24.17;57.85;101158.66;4941297;28;45393;-71
2023/06/22 01:32:06;;;;;;;;;1.00;1.00;;;;;24.23;58.51;101172.63;4941236;28;45333;-71
2023/06/22 01:34:32;;;;;;;;;8.75;7.00;;;;;24.07;58.19;101152.22;4943923;28;46549;-70
2023/06/22 01:36:58;;;;;;;;;5.75;4.75;;;;;24.11;58.18;101151.00;4943117;28;45419;-71
2023/06/22 01:39:25;;;;;;;;;4.75;4.75;;;;;24.04;58.02;101142.47;4939783;28;45492;-71
2023/06/22 01:41:50;;;;;;;;;4.75;4.75;;;;;24.03;58.43;101136.13;4951711;28;45616;-70
2023/06/22 01:44:17;;;;;;;;;4.50;4.50;;;;;23.99;58.19;101134.66;4939139;28;45454;-71
2023/06/22 01:46:43;;;;;;;;;5.00;5.00;;;;;23.97;57.85;101130.31;4934643;28;45955;-71
2023/06/22 01:49:09;;;;;;;;;5.00;5.00;;;;;23.98;58.02;101132.06;4939361;28;45311;-71
2023/06/22 01:51:34;;;;;;;;;5.00;5.00;;;;;24.10;58.16;101158.28;4940716;28;45290;-71
2023/06/22 01:54:02;;;;;;;;;4.75;3.50;;;;;23.89;58.53;101121.91;4939791;28;46337;-70
2023/06/22 01:56:27;;;;;;;;;5.75;5.75;;;;;23.81;58.78;101117.06;4938140;28;45442;-71
2023/06/22 01:59:09;;;;;;;;;4.25;4.25;;;;;24.01;58.45;101145.44;4940633;28;45394;-71
2023/06/22 02:01:57;;;;;;;;;4.00;4.00;;;;;23.87;58.58;101122.03;4934701;28;45261;-70
2023/06/22 02:04:28;;;;;;;;;5.00;5.00;;;;;23.90;58.23;101121.78;4941274;28;45637;-71
2023/06/22 02:06:59;;;;;;;;;4.50;4.50;;;;;23.98;58.17;101151.16;4939472;28;45323;-71
2023/06/22 02:09:30;;;;;;;;;6.25;5.00;;;;;23.80;58.53;101115.31;4940768;28;45474;-71
2023/06/22 02:11:57;;;;;;;;;4.25;4.25;;;;;23.76;58.20;101114.72;4952164;28;45408;-71
2023/06/22 02:14:23;;;;;;;;;5.75;5.75;;;;;23.77;58.78;101123.75;4935183;28;46145;-71
2023/06/22 02:16:51;;;;;;;;;6.00;6.00;;;;;23.79;58.22;101130.81;4939128;28;45779;-71
2023/06/22 02:19:18;;;;;;;;;5.00;4.00;;;;;23.73;58.56;101122.28;4938601;28;45512;-71
2023/06/22 02:21:44;;;;;;;;;5.75;4.00;;;;;23.74;58.36;101127.59;4940748;28;45379;-71
2023/06/22 02:24:10;;;;;;;;;5.00;5.00;;;;;23.82;58.51;101140.63;4937298;28;46337;-71
2023/06/22 02:26:38;;;;;;;;;5.50;5.00;;;;;23.63;58.38;101122.16;4939068;28;45356;-71
2023/06/22 02:29:03;;;;;;;;;2.75;2.75;;;;;23.74;58.94;101138.50;4940422;28;45428;-71
2023/06/22 02:31:30;;;;;;;;;5.75;5.75;;;;;23.68;58.81;101117.19;4940485;28;45506;-71
2023/06/22 02:33:59;;;;;;;;;6.50;5.50;;;;;23.61;58.55;101095.03;4932250;28;48155;-70
2023/06/22 02:36:26;;;;;;;;;4.25;4.25;;;;;23.64;58.65;101096.66;4935346;28;45372;-71
2023/06/22 02:38:52;;;;;;;;;6.00;5.00;;;;;23.74;58.81;101130.34;4940141;28;45513;-71
2023/06/22 02:41:18;;;;;;;;;5.75;4.75;;;;;23.56;58.51;101099.13;4932884;28;45675;-70
2023/06/22 02:43:46;;;;;;;;;3.50;3.50;;;;;23.58;58.84;101098.00;4954271;28;47198;-71
2023/06/22 02:46:13;;;;;;;;;4.50;3.50;;;;;23.57;58.63;101104.47;4939996;28;45761;-71
2023/06/22 02:48:42;;;;;;;;;6.75;5.25;;;;;23.56;58.52;101108.16;4940123;28;45325;-71
2023/06/22 02:51:08;;;;;;;;;5.75;3.75;;;;;23.63;58.67;101111.25;4940204;28;45361;-71
2023/06/22 02:53:34;;;;;;;;;5.00;4.00;;;;;23.50;58.99;101095.03;4934661;28;46419;-71
2023/06/22 02:56:06;;;;;;;;;4.25;4.25;;;;;23.57;58.48;101114.47;4934090;28;45330;-71
2023/06/22 02:58:39;;;;;;;;;2.50;2.50;;;;;23.63;58.90;101133.06;4940116;28;45401;-71
2023/06/22 03:01:05;;;;;;;;;6.25;5.00;;;;;23.49;58.56;101115.13;4945062;28;45320;-70
2023/06/22 03:03:31;;;;;;;;;3.00;3.00;;;;;23.53;58.60;101111.16;4938832;28;45455;-71
2023/06/22 03:05:56;;;;;;;;;5.25;5.25;;;;;23.51;58.93;101102.22;4937690;28;45383;-71
2023/06/22 03:08:22;;;;;;;;;5.00;4.00;;;;;23.47;58.73;101092.56;4940011;28;45540;-71
2023/06/22 03:10:47;;;;;;;;;4.00;4.00;;;;;23.50;58.74;101092.31;4934361;28;45544;-71
2023/06/22 03:13:12;;;;;;;;;4.50;4.50;;;;;23.48;58.55;101083.41;4930149;28;46509;-70
2023/06/22 03:15:38;;;;;;;;;4.00;3.50;;;;;23.41;58.71;101066.69;4939580;28;45736;-71
2023/06/22 03:18:04;;;;;;;;;6.50;5.75;;;;;23.52;58.81;101081.28;4938970;28;45517;-70
2023/06/22 03:20:33;;;;;;;;;5.25;4.00;;;;;23.58;58.80;101080.81;4943084;28;45560;-71
2023/06/22 03:22:59;;;;;;;;;5.00;5.00;;;;;23.51;59.06;101072.25;4932630;28;46994;-71
2023/06/22 03:25:24;;;;;;;;;2.50;2.50;;;;;23.51;58.62;101061.38;4941298;28;45820;-71
2023/06/22 03:27:49;;;;;;;;;5.25;4.25;;;;;23.51;58.81;101063.25;4943186;28;45495;-71
2023/06/22 03:30:15;;;;;;;;;4.00;4.00;;;;;23.46;58.49;101067.19;4942902;28;45430;-71
2023/06/22 03:32:40;;;;;;;;;6.25;5.75;;;;;23.46;58.34;101074.50;4947061;28;47123;-70
2023/06/22 03:35:06;;;;;;;;;5.25;4.25;;;;;23.48;58.72;101070.63;4950395;28;45319;-71
2023/06/22 03:37:31;;;;;;;;;5.00;4.50;;;;;23.57;58.65;101084.50;4943049;28;45435;-70
2023/06/22 03:39:57;;;;;;;;;6.00;5.00;;;;;23.55;58.92;101072.88;4942719;28;45578;-71
2023/06/22 03:42:22;;;;;;;;;4.50;4.00;;;;;23.51;58.69;101055.06;4942764;28;45413;-70
2023/06/22 03:44:47;;;;;;;;;5.25;5.00;;;;;23.51;58.42;101072.25;4931448;28;45311;-71
2023/06/22 03:47:13;;;;;;;;;4.00;4.00;;;;;23.42;58.33;101056.66;4942418;28;45885;-71
2023/06/22 03:49:38;;;;;;;;;7.50;5.25;;;;;23.46;58.62;101058.16;4941519;28;45702;-71
2023/06/22 03:52:05;;;;;;;;;5.75;5.00;;;;;23.28;58.57;101028.69;4935030;28;46497;-71
2023/06/22 03:54:31;;;;;;;;;5.00;4.25;;;;;23.42;58.88;101064.81;4938622;28;45476;-70
2023/06/22 03:56:57;;;;;;;;;5.00;5.00;;;;;23.35;58.91;101061.75;4942766;28;45480;-71
2023/06/22 03:59:23;;;;;;;;;7.00;7.00;;;;;23.31;59.11;101061.13;4941649;28;45378;-70
2023/06/22 04:01:48;;;;;;;;;5.00;4.50;;;;;23.42;58.90;101083.91;4948244;28;45397;-71
2023/06/22 04:04:14;;;;;;;;;5.50;5.50;;;;;23.35;59.01;101083.53;4943121;28;45348;-71
2023/06/22 04:06:39;;;;;;;;;7.00;7.00;;;;;23.23;59.06;101070.91;4941228;28;45355;-70
2023/06/22 04:09:06;;;;;;;;;7.50;4.50;;;;;23.21;58.65;101073.75;4942175;28;45325;-71
2023/06/22 04:11:31;;;;;;;;;6.25;5.00;;;;;23.16;59.12;101064.25;4939451;28;45763;-70
2023/06/22 04:13:56;;;;;;;;;4.00;4.00;;;;;23.23;59.72;101076.38;4941345;28;45392;-71
2023/06/22 04:16:22;;;;;;;;;4.25;4.25;;;;;23.16;59.65;101073.28;4942571;28;45402;-71
2023/06/22 04:18:47;;;;;;;;;6.00;5.00;;;;;23.17;59.70;101075.00;4941578;28;45527;-70
2023/06/22 04:21:13;;;;;;;;;4.50;4.50;;;;;23.19;59.56;101078.47;4935774;28;45240;-70
2023/06/22 04:23:38;;;;;;;;;5.00;5.00;;;;;23.19;59.80;101081.19;4941925;28;45478;-71
2023/06/22 04:26:04;;;;;;;;;8.00;6.00;;;;;23.18;59.92;101086.75;4942413;28;45453;-70
2023/06/22 04:28:29;;;;;;;;;5.00;4.00;;;;;23.01;59.75;101056.28;4941959;28;45354;-71
2023/06/22 04:30:58;;;;;;;;;5.25;5.25;;;;;23.26;60.65;101106.06;4938939;28;47346;-71
2023/06/22 04:33:23;;;;;;;;;7.75;6.75;;;;;23.05;61.44;101079.53;4942776;28;45404;-71
2023/06/22 04:35:48;;;;;;;;;6.00;6.00;;;;;23.05;61.93;101073.22;4940464;28;45363;-70
2023/06/22 04:38:14;;;;;;;;;8.75;6.00;;;;;22.97;62.32;101071.13;4940456;28;45620;-71
2023/06/22 04:40:40;;;;;;;;;5.75;4.75;;;;;23.02;62.40;101087.97;4948831;28;46401;-71
2023/06/22 04:43:06;;;;;;;;;7.00;7.00;;;;;22.91;62.48;101071.59;4946258;28;45338;-71
2023/06/22 04:45:32;;;;;;;;;7.50;6.75;;;;;22.90;62.43;101087.09;4941570;28;45461;-70
2023/06/22 04:47:58;;;;;;;;;7.50;7.50;;;;;22.96;63.03;101099.34;4941534;28;45475;-70
2023/06/22 04:50:23;;;;;;;;;5.00;4.75;;;;;22.76;63.36;101074.53;4937839;28;46686;-70
2023/06/22 04:52:50;;;;;;;;;5.75;4.75;;;;;22.85;64.36;101093.84;4937223;28;45437;-70
2023/06/22 04:55:19;;;;;;;;;8.00;6.75;;;;;22.85;64.75;101093.84;4941910;28;45351;-70
2023/06/22 04:57:48;;;;;;;;;8.50;5.75;;;;;22.72;64.91;101067.63;4941647;28;45600;-70
2023/06/22 05:00:17;;;;;;;;;7.50;6.50;;;;;22.73;65.55;101071.19;4940183;28;45613;-71
2023/06/22 05:02:45;;;;;;;;;6.00;6.00;;;;;22.86;65.84;101084.72;4941120;28;45610;-71
2023/06/22 05:05:13;;;;;;;;;7.25;6.00;;;;;22.81;66.17;101082.34;4941615;28;45356;-71
2023/06/22 05:07:42;;;;;;;;;8.00;7.00;;;;;22.90;66.75;101097.97;4941033;28;45525;-70
2023/06/22 05:10:09;;;;;;;;;10.50;9.00;;;;;22.76;67.07;101085.44;4940856;28;45535;-70
2023/06/22 05:12:34;;;;;;;;;5.75;5.75;;;;;22.89;66.78;101109.84;4941709;28;45812;-70
2023/06/22 05:15:01;;;;;;;;;5.50;5.50;;;;;22.68;67.73;101073.41;4941361;28;45346;-71
2023/06/22 05:17:26;;;;;;;;;7.25;7.25;;;;;22.71;68.00;101087.66;4941228;28;45402;-70
2023/06/22 05:19:52;;;;;;;;;7.00;7.00;;;;;22.69;68.00;101081.47;4938577;28;47334;-70
2023/06/22 05:22:17;;;;;;;;;8.25;7.25;;;;;22.85;67.59;101113.75;4940985;28;45283;-70
2023/06/22 05:24:43;;;;;;;;;4.00;3.00;;;;;22.65;68.13;101070.94;4941582;28;45414;-70
2023/06/22 05:27:10;;;;;;;;;9.75;8.25;;;;;22.67;68.57;101071.66;4939714;28;45558;-70
2023/06/22 05:29:36;;;;;;;;;7.75;7.00;;;;;22.65;68.26;101063.63;4952837;28;47058;-70
2023/06/22 05:32:02;;;;;;;;;9.00;8.50;;;;;22.59;67.85;101045.09;4919168;28;45597;-70
2023/06/22 05:34:27;;;;;;;;;8.00;7.00;;;;;22.66;68.45;101054.50;4931978;28;45542;-70
2023/06/22 05:36:53;;;;;;;;;6.00;6.00;;;;;22.61;68.52;101045.81;4940776;28;45466;-71
2023/06/22 05:39:18;;;;;;;;;9.50;9.00;;;;;22.65;68.95;101049.16;4940838;28;46024;-70
2023/06/22 05:41:45;;;;;;;;;11.25;8.00;;;;;22.63;69.86;101048.44;4928214;28;45448;-70
2023/06/22 05:44:10;;;;;;;;;6.00;6.00;;;;;22.61;69.52;101051.25;4941004;28;45323;-70
2023/06/22 05:46:36;;;;;;;;;8.50;8.50;;;;;22.55;69.92;101043.56;4940127;28;45673;-71
2023/06/22 05:49:01;;;;;;;;;8.25;8.25;;;;;22.72;69.94;101075.78;4928634;28;47301;-70
2023/06/22 05:51:27;;;;;;;;;9.25;8.75;;;;;22.50;69.22;101045.78;4935717;28;45327;-70
2023/06/22 05:53:52;;;;;;;;;9.00;8.50;;;;;22.64;68.96;101066.50;4932211;28;45246;-70
2023/06/22 05:56:17;;;;;;;;;11.75;10.75;;;;;22.57;70.05;101063.38;4938948;28;45919;-70
2023/06/22 05:58:43;;;;;;;;;8.25;7.75;;;;;22.41;69.41;101032.91;4940669;28;46456;-71
2023/06/22 06:01:08;;;;;;;;;11.25;10.25;;;;;22.39;69.88;101047.50;4945478;28;45441;-70
2023/06/22 06:03:34;;;;;;;;;12.00;12.00;;;;;22.56;70.53;101070.66;4929876;28;45503;-70
2023/06/22 06:05:59;;;;;;;;;12.00;10.50;;;;;22.39;70.73;101057.50;4935186;28;45435;-70
2023/06/22 06:08:25;;;;;;;;;10.75;10.75;;;;;22.34;70.71;101052.44;4930028;28;47981;-70
2023/06/22 06:10:52;;;;;;;;;11.00;10.75;;;;;22.32;70.18;101054.41;4938281;28;45579;-70
2023/06/22 06:13:18;;;;;;;;;16.00;12.25;;;;;22.19;70.71;101035.41;4940587;28;45474;-70
2023/06/22 06:15:43;;;;;;;;;14.75;14.00;;;;;22.36;71.66;101063.19;4954876;28;45863;-70
2023/06/22 06:18:09;;;;;;;;;13.00;12.25;;;;;22.37;71.67;101078.53;4938369;28;47198;-70
2023/06/22 06:20:35;;;;;;;;;11.50;11.50;;;;;22.29;71.45;101064.66;4936893;28;45276;-70
2023/06/22 06:23:00;;;;;;;;;14.25;12.25;;;;;22.19;71.54;101054.44;4940220;28;45344;-70
2023/06/22 06:25:26;;;;;;;;;15.25;14.00;;;;;22.23;71.31;101068.66;4940265;28;45496;-70
2023/06/22 06:27:54;;;;;;;;;11.75;11.75;;;;;22.08;72.19;101054.38;4938793;28;47111;-70
2023/06/22 06:30:20;;;;;;;;;13.25;12.00;;;;;22.16;72.94;101083.72;4949513;28;46069;-70
2023/06/22 06:32:46;;;;;;;;;14.00;13.25;;;;;22.11;72.01;101075.91;4933278;28;45502;-70
2023/06/22 06:35:13;;;;;;;;;11.75;11.75;;;;;22.15;73.03;101082.84;4935778;28;45457;-71
2023/06/22 06:37:40;;;;;;;;;15.00;12.75;;;;;22.13;73.63;101083.94;4938616;28;46023;-71
2023/06/22 06:40:10;;;;;;;;;14.75;13.50;;;;;22.09;73.53;101082.44;4938153;28;45872;-69
2023/06/22 06:42:41;;;;;;;;;18.50;16.25;;;;;21.96;73.97;101067.06;4930170;28;45519;-70
2023/06/22 06:45:22;;;;;;;;;18.25;16.25;;;;;22.10;74.05;101076.91;4936794;28;45580;-73
2023/06/22 06:47:48;;;;;;;;;17.25;17.00;;;;;22.07;73.91;101071.69;4938540;28;46309;-73
2023/06/22 06:50:13;;;;;;;;;20.00;15.75;;;;;21.98;73.98;101054.22;4951851;28;46219;-72
2023/06/22 06:52:39;;;;;;;;;15.50;15.25;;;;;21.87;73.50;101034.25;4935753;28;45354;-71
2023/06/22 06:55:08;;;;;;;;;19.50;18.25;;;;;21.86;74.29;101037.97;4944396;28;45738;-73
2023/06/22 06:57:34;;;;;;;;;18.75;14.50;;;;;21.88;74.26;101045.03;4941968;28;46060;-72
2023/06/22 07:00:00;;;;;;;;;17.00;16.00;;;;;21.87;74.48;101053.28;4942839;28;46949;-73
2023/06/22 07:02:30;;;;;;;;;18.50;18.50;;;;;21.91;75.29;101060.25;4943103;28;45476;-73
2023/06/22 07:04:55;;;;;;;;;18.00;16.50;;;;;21.90;75.30;101051.22;4941729;28;45357;-72
2023/06/22 07:07:20;;;;;;;;;18.25;16.50;;;;;21.88;75.63;101052.31;4941946;28;45484;-72
2023/06/22 07:09:46;;;;;;;;;18.25;18.25;;;;;21.92;75.59;101057.41;4939986;28;45687;-71
2023/06/22 07:12:12;;;;;;;;;20.75;20.50;;;;;21.82;75.56;101046.34;4936266;28;45458;-72
2023/06/22 07:14:37;;;;;;;;;21.50;19.25;;;;;21.79;75.05;101043.00;4942144;28;45324;-74
2023/06/22 07:17:03;;;;;;;;;18.75;18.50;;;;;21.70;75.52;101036.41;4934491;28;45297;-73
2023/06/22 07:19:28;;;;;;;;;16.00;16.00;;;;;21.76;76.35;101056.81;4941751;28;45438;-74
2023/06/22 07:21:54;;;;;;;;;16.75;14.50;;;;;21.77;76.35;101047.69;4954481;28;45544;-72
2023/06/22 07:24:24;;;;;;;;;22.25;18.75;;;;;21.81;75.82;101060.06;4941258;28;45569;-72
2023/06/22 07:26:50;;;;;;;;;17.50;16.25;;;;;21.79;76.36;101053.88;4932042;28;45646;-72
2023/06/22 07:29:22;;;;;;;;;22.75;22.75;;;;;21.71;76.31;101029.13;4936730;28;45666;-72
2023/06/22 07:31:50;;;;;;;;;19.50;18.50;;;;;21.74;76.24;101037.06;4935436;28;45584;-72
2023/06/22 07:34:15;;;;;;;;;21.00;19.25;;;;;21.62;76.66;101011.69;4940848;28;45620;-72
2023/06/22 07:36:40;;;;;;;;;19.50;19.25;;;;;21.54;76.52;101001.38;4937401;28;45570;-72
2023/06/22 07:39:06;;;;;;;;;21.50;19.50;;;;;21.66;77.15;101037.63;4935070;28;45559;-72
2023/06/22 07:41:31;;;;;;;;;25.25;21.75;;;;;21.54;77.22;101017.66;4940739;28;45379;-72
2023/06/22 07:43:57;;;;;;;;;25.00;22.75;;;;;21.61;77.09;101028.94;4940805;28;45517;-72
2023/06/22 07:46:23;;;;;;;;;25.75;22.00;;;;;21.62;77.63;101030.69;4940650;28;46132;-72
2023/06/22 07:48:48;;;;;;;;;19.00;18.75;;;;;21.57;77.57;101020.16;4938172;28;45613;-72
2023/06/22 07:51:14;;;;;;;;;24.50;23.25;;;;;21.70;77.76;101046.41;4940497;28;45494;-71
2023/06/22 07:53:41;;;;;;;;;26.50;21.50;;;;;21.63;77.17;101038.72;4937308;28;45678;-72
2023/06/22 07:56:06;;;;;;;;;22.50;21.25;;;;;21.63;78.10;101043.28;4935656;28;47633;-72
2023/06/22 07:58:33;;;;;;;;;22.50;20.50;;;;;21.60;77.85;101044.38;4935233;28;47199;-72
2023/06/22 08:00:58;;;;;;;;;23.50;20.50;;;;;21.68;78.09;101053.81;4938949;28;45441;-72
2023/06/22 08:03:24;;;;;;;;;27.50;25.00;;;;;21.58;78.34;101042.75;4950108;28;45619;-72
2023/06/22 08:05:49;;;;;;;;;26.25;23.00;;;;;21.65;78.34;101058.50;4940460;28;46494;-72
2023/06/22 08:08:15;;;;;;;;;26.25;23.00;;;;;21.59;78.81;101052.66;4939480;28;45383;-72
2023/06/22 08:10:41;;;;;;;;;21.75;18.50;;;;;21.43;78.95;101025.69;4948452;28;45355;-72
2023/06/22 08:13:06;;;;;;;;;32.00;26.75;;;;;21.49;79.26;101036.16;4938981;28;45531;-72
2023/06/22 08:15:32;;;;;;;;;23.50;20.50;;;;;21.43;78.68;101029.31;4938109;28;47150;-72
2023/06/22 08:17:57;;;;;;;;;28.50;26.25;;;;;21.55;79.17;101048.41;4938958;28;45428;-72
2023/06/22 08:20:23;;;;;;;;;29.75;24.75;;;;;21.58;79.58;101062.63;4946892;28;45515;-72
2023/06/22 08:22:48;;;;;;;;;29.00;27.75;;;;;21.53;78.98;101051.22;4936294;28;45595;-72
2023/06/22 08:25:14;;;;;;;;;24.25;22.25;;;;;21.34;79.03;101024.53;4937883;28;47173;-71
2023/06/22 08:27:39;;;;;;;;;28.00;22.50;;;;;21.54;79.24;101066.56;4934466;28;45534;-72
2023/06/22 08:30:06;;;;;;;;;18.25;17.75;;;;;21.52;79.31;101060.38;4954362;28;45513;-72
2023/06/22 08:32:32;;;;;;;;;29.75;27.75;;;;;21.54;79.89;101063.84;4940221;28;45497;-72
2023/06/22 08:34:58;;;;;;;;;28.75;28.25;;;;;21.46;79.97;101060.78;4946635;28;45570;-72
2023/06/22 08:37:30;;;;;;;;;16.50;16.50;;;;;21.48;80.29;101060.72;4934387;28;47148;-73
2023/06/22 08:39:55;;;;;;;;;27.75;23.75;;;;;21.35;80.22;101042.56;4930361;28;46916;-72
2023/06/22 08:42:21;;;;;;;;;26.00;23.75;;;;;21.38;80.31;101039.59;4936072;28;45742;-72
2023/06/22 08:44:46;;;;;;;;;26.75;25.25;;;;;21.44;80.41;101055.47;4931612;28;48177;-74
2023/06/22 08:47:11;;;;;;;;;23.75;22.75;;;;;21.53;80.75;101069.38;4931711;28;45606;-74
2023/06/22 08:49:37;;;;;;;;;29.00;26.75;;;;;21.29;81.01;101037.59;4934785;28;45549;-73
2023/06/22 08:52:02;;;;;;;;;27.75;23.75;;;;;21.33;80.92;101040.94;4932838;28;46145;-73
2023/06/22 08:54:27;;;;;;;;;26.75;24.75;;;;;21.35;81.76;101049.84;4934010;28;47054;-72
2023/06/22 08:56:53;;;;;;;;;23.50;22.75;;;;;21.45;81.50;101068.06;4932600;28;45770;-73
2023/06/22 08:59:18;;;;;;;;;24.00;21.50;;;;;21.36;81.30;101044.28;4945957;28;45566;-72
2023/06/22 09:01:45;;;;;;;;;27.50;26.25;;;;;21.45;81.52;101064.47;4934974;28;45517;-71
2023/06/22 09:04:11;;;;;;;;;21.50;21.00;;;;;21.44;81.67;101069.03;4935860;28;45522;-68
2023/06/22 09:06:41;;;;;;;;;25.50;22.25;;;;;21.25;81.96;101044.19;4930327;28;46818;-73
2023/06/22 09:09:06;;;;;;;;;23.75;22.50;;;;;21.33;82.31;101060.81;4925994;28;45735;-73
2023/06/22 09:11:32;;;;;;;;;25.75;24.25;;;;;21.37;81.82;101070.47;4932170;28;45383;-73
2023/06/22 09:13:57;;;;;;;;;26.25;23.00;;;;;21.17;81.98;101042.06;4931707;28;46813;-73
2023/06/22 09:16:22;;;;;;;;;23.50;21.50;;;;;21.16;82.06;101043.03;4931506;28;45363;-73
2023/06/22 09:18:48;;;;;;;;;19.25;19.25;;;;;21.28;82.72;101063.00;4935063;28;45418;-73
2023/06/22 09:21:13;;;;;;;;;26.00;24.25;;;;;21.26;82.44;101062.25;4948830;28;45829;-73
2023/06/22 09:23:39;;;;;;;;;21.25;21.25;;;;;21.34;82.76;101073.41;4935515;28;45624;-73
2023/06/22 09:26:05;;;;;;;;;25.25;23.25;;;;;21.26;83.34;101062.25;4937465;28;45332;-73
2023/06/22 09:28:30;;;;;;;;;25.25;22.75;;;;;21.36;83.02;101073.31;4928097;28;45725;-73
2023/06/22 09:30:58;;;;;;;;;26.00;25.25;;;;;21.28;82.88;101068.41;4926023;28;47074;-73
2023/06/22 09:33:24;;;;;;;;;25.00;23.25;;;;;21.36;82.87;101082.31;4932846;28;45734;-73
2023/06/22 09:35:50;;;;;;;;;25.50;20.50;;;;;21.16;83.52;101055.75;4937031;28;45653;-73
2023/06/22 09:38:16;;;;;;;;;23.25;21.75;;;;;21.31;82.56;101080.91;4936672;28;45819;-73
2023/06/22 09:40:41;;;;;;;;;26.50;24.50;;;;;21.17;82.79;101057.50;4936976;28;45623;-73
2023/06/22 09:43:06;;;;;;;;;23.50;23.50;;;;;21.33;83.08;101077.09;4934921;28;46559;-73
2023/06/22 09:45:32;;;;;;;;;24.25;23.75;;;;;21.20;82.82;101063.56;4935376;28;46121;-73
2023/06/22 09:47:57;;;;;;;;;22.25;19.50;;;;;21.33;82.54;101090.66;4934535;28;47119;-73
2023/06/22 09:50:22;;;;;;;;;24.75;23.00;;;;;21.33;82.21;101096.09;4937800;28;46959;-73
2023/06/22 09:52:50;;;;;;;;;22.00;20.00;;;;;21.39;82.82;101098.38;4935147;28;45549;-73
2023/06/22 09:55:16;;;;;;;;;21.25;21.25;;;;;21.38;82.70;101109.34;4937929;28;45846;-73
2023/06/22 09:57:41;;;;;;;;;18.75;17.50;;;;;21.38;82.57;101101.22;4936548;28;47354;-73
2023/06/22 10:00:11;;;;;;;;;20.25;20.25;;;;;21.40;82.79;101110.09;4937396;28;46226;-73
2023/06/22 10:02:38;;;;;;;;;21.00;19.75;;;;;21.37;82.76;101122.06;4932296;28;48298;-73
2023/06/22 10:05:03;;;;;;;;;22.75;22.50;;;;;21.41;82.85;101125.44;4931681;28;46038;-75
2023/06/22 10:07:28;;;;;;;;;20.25;18.75;;;;;21.20;83.00;101084.38;4933325;28;45581;-73
2023/06/22 10:09:54;;;;;;;;;22.75;20.00;;;;;21.36;82.72;101106.75;4932831;28;45730;-74
2023/06/22 10:12:19;;;;;;;;;21.50;19.50;;;;;21.34;82.35;101108.72;4937068;28;46785;-74
2023/06/22 10:14:44;;;;;;;;;21.75;19.75;;;;;21.43;83.58;101115.31;4931164;28;45424;-74
2023/06/22 10:17:10;;;;;;;;;17.25;17.25;;;;;21.45;82.19;101127.81;4934036;28;45745;-74
2023/06/22 10:19:37;;;;;;;;;20.25;19.00;;;;;21.31;83.34;101098.06;4933413;28;45603;-74
2023/06/22 10:22:03;;;;;;;;;24.75;20.75;;;;;21.40;83.02;101108.28;4935214;28;47010;-73
2023/06/22 10:24:29;;;;;;;;;20.75;20.00;;;;;21.28;83.02;101092.84;4932359;28;45580;-69
2023/06/22 10:26:54;;;;;;;;;18.00;16.25;;;;;21.40;83.14;101113.72;4932780;28;46886;-70
2023/06/22 10:29:20;;;;;;;;;18.25;17.50;;;;;21.40;82.52;101107.38;4935573;28;46058;-70
2023/06/22 10:31:45;;;;;;;;;21.50;19.75;;;;;21.46;83.25;101120.53;4935365;28;47161;-73
2023/06/22 10:34:11;;;;;;;;;21.75;18.75;;;;;21.47;83.67;101125.03;4941184;28;45419;-73
2023/06/22 10:36:36;;;;;;;;;17.25;17.00;;;;;21.55;82.93;101143.47;4942202;28;45405;-73
2023/06/22 10:39:02;;;;;;;;;20.25;16.25;;;;;21.55;83.59;101140.75;4942141;28;45601;-73
2023/06/22 10:41:29;;;;;;;;;17.50;16.75;;;;;21.50;82.50;101137.50;4939653;28;45526;-73
2023/06/22 10:43:55;;;;;;;;;16.00;16.00;;;;;21.49;83.63;101133.94;4944987;28;45411;-73
2023/06/22 10:46:20;;;;;;;;;11.75;11.75;;;;;21.38;83.31;101115.63;4940721;28;45414;-72
2023/06/22 10:48:46;;;;;;;;;17.25;15.25;;;;;21.48;82.96;101143.03;4940839;28;46327;-73
2023/06/22 10:51:11;;;;;;;;;16.75;14.50;;;;;21.61;83.75;101159.34;4939064;28;47128;-72
2023/06/22 10:53:37;;;;;;;;;18.00;16.25;;;;;21.57;82.33;101155.13;4929751;28;45701;-73
2023/06/22 10:56:02;;;;;;;;;15.50;14.25;;;;;21.54;83.03;101145.31;4940663;28;45311;-73
2023/06/22 10:58:27;;;;;;;;;14.50;14.00;;;;;21.54;82.93;101158.03;4943281;28;45351;-73
2023/06/22 11:00:53;;;;;;;;;11.00;10.25;;;;;21.68;82.87;101187.78;4948766;28;46365;-73
2023/06/22 11:03:18;;;;;;;;;17.50;17.00;;;;;21.68;82.48;101174.19;4942036;28;45446;-73
2023/06/22 11:05:44;;;;;;;;;14.25;14.25;;;;;21.53;83.03;101151.72;4940911;28;45688;-73
2023/06/22 11:08:09;;;;;;;;;12.75;12.75;;;;;21.65;83.05;101167.16;4941204;28;45429;-73
2023/06/22 11:10:34;;;;;;;;;14.75;13.50;;;;;21.72;82.81;101166.69;4941109;28;46507;-73
2023/06/22 11:13:00;;;;;;;;;14.50;14.25;;;;;21.74;82.85;101176.47;4941544;28;45421;-73
2023/06/22 11:15:25;;;;;;;;;11.75;10.75;;;;;21.81;82.46;101179.63;4940890;28;45466;-73